createdAt,value
2022-07-29T00:00:19.961Z,100426.66
2022-07-29T00:03:22.674Z,100430.06
2022-07-29T00:06:25.356Z,100432.09
2022-07-29T00:09:28.308Z,100428.38
2022-07-29T00:12:30.694Z,100426.09
2022-07-29T00:15:34.995Z,100427.19
2022-07-29T00:18:37.400Z,100425.12
2022-07-29T00:21:40.212Z,100426.22
2022-07-29T00:24:42.542Z,100427.56
2022-07-29T00:27:46.736Z,100425.97
2022-07-29T00:30:49.067Z,100426.97
2022-07-29T00:33:51.683Z,100421.91
2022-07-29T00:36:53.994Z,100429.72
2022-07-29T00:39:56.602Z,100426.13
2022-07-29T00:42:58.938Z,100433.69
2022-07-29T00:46:02.562Z,100438.16
2022-07-29T00:49:04.998Z,100429.59
2022-07-29T00:52:08.651Z,100428.97
2022-07-29T00:55:12.675Z,100420.44
2022-07-29T00:58:16.055Z,100423.34
2022-07-29T01:01:18.389Z,100427.19
2022-07-29T01:04:21.537Z,100421.66
2022-07-29T01:07:25.318Z,100429.34
2022-07-29T01:10:28.488Z,100415.38
2022-07-29T01:13:31.146Z,100421.66
2022-07-29T01:16:37.467Z,100414.19
2022-07-29T01:20:02.420Z,100414.31
2022-07-29T01:23:08.152Z,100417.19
2022-07-29T01:26:20.500Z,100418.06
2022-07-29T01:29:30.999Z,100415.88
2022-07-29T01:32:42.007Z,100417.31
2022-07-29T01:35:45.504Z,100413.25
2022-07-29T01:38:55.366Z,100408.19
2022-07-29T01:42:06.988Z,100418.56
2022-07-29T01:45:29.161Z,100410.97
2022-07-29T01:48:35.929Z,100412.28
2022-07-29T01:51:48.043Z,100422.88
2022-07-29T01:54:53.363Z,100418.78
2022-07-29T01:57:58.082Z,100408.44
2022-07-29T02:01:00.911Z,100409.38
2022-07-29T02:04:04.617Z,100408.06
2022-07-29T02:07:08.053Z,100411.78
2022-07-29T02:10:11.703Z,100408.44
2022-07-29T02:13:14.564Z,100408.84
2022-07-29T02:16:18.741Z,100411.75
2022-07-29T02:19:23.382Z,100410.28
2022-07-29T02:22:27.688Z,100411.25
2022-07-29T02:25:38.066Z,100411.13
2022-07-29T02:28:41.303Z,100403.31
2022-07-29T02:31:45.344Z,100410.53
2022-07-29T02:34:48.632Z,100402.09
2022-07-29T02:38:11.570Z,100404.03
2022-07-29T02:41:17.636Z,100404.84
2022-07-29T02:44:22.411Z,100399.81
2022-07-29T02:47:41.481Z,100401.25
2022-07-29T02:50:52.999Z,100403.47
2022-07-29T02:53:57.645Z,100401.31
2022-07-29T02:57:01.780Z,100393.97
2022-07-29T03:00:09.126Z,100408.50
2022-07-29T03:03:15.983Z,100397.41
2022-07-29T03:06:28.252Z,100396.44
2022-07-29T03:09:42.733Z,100399.44
2022-07-29T03:12:45.808Z,100406.41
2022-07-29T03:15:48.530Z,100399.66
2022-07-29T03:18:51.735Z,100400.63
2022-07-29T03:21:56.818Z,100403.16
2022-07-29T03:25:08.071Z,100405.91
2022-07-29T03:28:10.514Z,100405.91
2022-07-29T03:31:13.177Z,100408.56
2022-07-29T03:34:15.942Z,100414.69
2022-07-29T03:37:18.829Z,100407.59
2022-07-29T03:40:23.292Z,100410.97
2022-07-29T03:43:30.129Z,100409.16
2022-07-29T03:46:33.961Z,100404.16
2022-07-29T03:49:37.571Z,100405.72
2022-07-29T03:52:39.962Z,100404.75
2022-07-29T03:55:43.981Z,100405.38
2022-07-29T03:58:46.719Z,100417.41
2022-07-29T04:01:49.941Z,100417.06
2022-07-29T04:04:52.742Z,100422.97
2022-07-29T04:07:55.813Z,100418.41
2022-07-29T04:11:01.137Z,100422.84
2022-07-29T04:14:03.439Z,100420.34
2022-07-29T04:17:06.032Z,100423.72
2022-07-29T04:20:08.603Z,100431.22
2022-07-29T04:23:11.148Z,100427.00
2022-07-29T04:26:13.493Z,100425.75
2022-07-29T04:29:16.189Z,100423.47
2022-07-29T04:32:18.575Z,100427.81
2022-07-29T04:35:21.244Z,100429.25
2022-07-29T04:38:23.535Z,100429.38
2022-07-29T04:41:33.163Z,100429.38
2022-07-29T04:44:37.200Z,100419.75
2022-07-29T04:47:42.306Z,100418.53
2022-07-29T04:50:45.284Z,100419.22
2022-07-29T04:53:47.812Z,100423.72
2022-07-29T04:56:50.180Z,100428.13
2022-07-29T04:59:52.749Z,100430.75
2022-07-29T05:02:55.150Z,100429.50
2022-07-29T05:05:57.853Z,100434.75
2022-07-29T05:09:00.119Z,100428.25
2022-07-29T05:12:02.863Z,100425.62
2022-07-29T05:15:05.409Z,100432.66
2022-07-29T05:18:08.114Z,100432.88
2022-07-29T05:21:10.512Z,100436.38
2022-07-29T05:24:13.270Z,100426.84
2022-07-29T05:27:15.855Z,100426.63
2022-07-29T05:30:18.815Z,100430.25
2022-07-29T05:33:35.439Z,100433.63
2022-07-29T05:36:39.375Z,100428.16
2022-07-29T05:39:48.553Z,100425.56
2022-07-29T05:42:51.950Z,100432.53
2022-07-29T05:45:54.396Z,100433.56
2022-07-29T05:48:57.280Z,100433.34
2022-07-29T05:51:59.620Z,100434.03
2022-07-29T05:55:05.264Z,100436.50
2022-07-29T05:58:07.936Z,100428.94
2022-07-29T06:01:10.544Z,100427.97
2022-07-29T06:04:13.358Z,100438.75
2022-07-29T06:07:17.139Z,100440.41
2022-07-29T06:10:20.174Z,100440.53
2022-07-29T06:13:26.231Z,100437.97
2022-07-29T06:16:30.135Z,100437.09
2022-07-29T06:19:34.826Z,100440.47
2022-07-29T06:22:37.473Z,100448.31
2022-07-29T06:25:40.897Z,100439.88
2022-07-29T06:28:43.532Z,100444.50
2022-07-29T06:31:45.869Z,100443.06
2022-07-29T06:34:48.948Z,100447.47
2022-07-29T06:37:51.942Z,100440.37
2022-07-29T06:41:00.979Z,100449.12
2022-07-29T06:44:03.682Z,100455.75
2022-07-29T06:47:06.757Z,100458.25
2022-07-29T06:50:12.760Z,100451.38
2022-07-29T06:53:15.367Z,100456.78
2022-07-29T06:56:17.760Z,100457.66
2022-07-29T06:59:26.232Z,100456.91
2022-07-29T07:02:33.284Z,100459.91
2022-07-29T07:05:35.825Z,100442.22
2022-07-29T07:08:38.161Z,100450.31
2022-07-29T07:11:40.896Z,100444.25
2022-07-29T07:14:43.397Z,100449.78
2022-07-29T07:17:46.021Z,100456.31
2022-07-29T07:20:48.640Z,100451.50
2022-07-29T07:23:51.295Z,100448.34
2022-07-29T07:26:53.726Z,100446.44
2022-07-29T07:29:56.356Z,100442.19
2022-07-29T07:32:58.713Z,100435.03
2022-07-29T07:36:01.262Z,100432.78
2022-07-29T07:39:04.482Z,100431.69
2022-07-29T07:42:07.157Z,100443.53
2022-07-29T07:45:15.909Z,100442.53
2022-07-29T07:48:19.496Z,100446.53
2022-07-29T07:51:21.781Z,100436.13
2022-07-29T07:54:24.674Z,100439.59
2022-07-29T07:57:26.947Z,100428.75
2022-07-29T08:00:29.547Z,100429.59
2022-07-29T08:03:32.159Z,100428.81
2022-07-29T08:06:35.886Z,100428.16
2022-07-29T08:09:38.491Z,100423.66
2022-07-29T08:12:40.835Z,100418.84
2022-07-29T08:15:44.146Z,100420.84
2022-07-29T08:18:47.084Z,100422.63
2022-07-29T08:21:50.236Z,100429.22
2022-07-29T08:24:56.996Z,100420.78
2022-07-29T08:27:59.988Z,100416.87
2022-07-29T08:31:02.274Z,100412.50
2022-07-29T08:34:05.335Z,100409.78
2022-07-29T08:37:07.626Z,100409.00
2022-07-29T08:40:10.617Z,100410.88
2022-07-29T08:43:13.585Z,100419.16
2022-07-29T08:46:18.117Z,100409.91
2022-07-29T08:49:20.918Z,100410.13
2022-07-29T08:52:26.061Z,100398.69
2022-07-29T08:55:28.835Z,100400.56
2022-07-29T08:58:37.015Z,100396.84
2022-07-29T09:01:42.748Z,100400.72
2022-07-29T09:04:47.907Z,100400.28
2022-07-29T09:07:51.063Z,100393.13
2022-07-29T09:10:54.427Z,100392.78
2022-07-29T09:13:56.744Z,100379.41
2022-07-29T09:16:59.647Z,100391.19
2022-07-29T09:20:09.881Z,100381.09
2022-07-29T09:23:12.780Z,100382.06
2022-07-29T09:26:29.163Z,100379.19
2022-07-29T09:29:36.154Z,100376.72
2022-07-29T09:32:57.636Z,100360.59
2022-07-29T09:36:01.935Z,100364.09
2022-07-29T09:39:04.805Z,100354.81
2022-07-29T09:42:07.730Z,100352.44
2022-07-29T09:45:11.407Z,100350.62
2022-07-29T09:48:15.234Z,100339.88
2022-07-29T09:51:25.480Z,100339.97
2022-07-29T09:54:35.481Z,100339.72
2022-07-29T09:57:37.856Z,100331.47
2022-07-29T10:00:43.333Z,100329.06
2022-07-29T10:03:53.182Z,100328.41
2022-07-29T10:07:04.347Z,100324.97
2022-07-29T10:10:08.463Z,100319.91
2022-07-29T10:13:16.080Z,100324.25
2022-07-29T10:16:19.316Z,100323.59
2022-07-29T10:19:21.780Z,100318.50
2022-07-29T10:22:51.466Z,100318.94
2022-07-29T10:25:46.996Z,100316.50
2022-07-29T10:28:49.648Z,100313.28
2022-07-29T10:32:10.985Z,100306.47
2022-07-29T10:35:19.024Z,100305.37
2022-07-29T10:38:24.749Z,100300.09
2022-07-29T10:41:54.173Z,100298.31
2022-07-29T10:44:56.740Z,100300.88
2022-07-29T10:48:07.968Z,100294.59
2022-07-29T10:51:10.733Z,100297.50
2022-07-29T10:54:16.425Z,100290.28
2022-07-29T10:57:20.277Z,100295.22
2022-07-29T11:00:28.018Z,100291.84
2022-07-29T11:03:50.440Z,100284.31
2022-07-29T11:06:59.667Z,100269.25
2022-07-29T11:10:15.353Z,100276.03
2022-07-29T11:13:41.360Z,100280.41
2022-07-29T11:17:05.987Z,100279.03
2022-07-29T11:20:27.168Z,100274.87
2022-07-29T11:23:33.388Z,100266.34
2022-07-29T11:26:37.077Z,100260.94
2022-07-29T11:29:43.177Z,100265.44
2022-07-29T11:32:48.845Z,100257.53
2022-07-29T11:36:17.812Z,100245.38
2022-07-29T11:39:36.273Z,100240.59
2022-07-29T11:42:41.999Z,100243.22
2022-07-29T11:45:48.047Z,100236.63
2022-07-29T11:48:50.509Z,100233.22
2022-07-29T11:51:58.881Z,100236.13
2022-07-29T11:55:09.599Z,100234.31
2022-07-29T11:58:13.159Z,100227.84
2022-07-29T12:01:18.145Z,100235.75
2022-07-29T12:04:20.859Z,100236.97
2022-07-29T12:07:34.920Z,100236.87
2022-07-29T12:10:38.192Z,100227.50
2022-07-29T12:13:40.771Z,100222.06
2022-07-29T12:16:43.414Z,100221.09
2022-07-29T12:19:46.472Z,100206.69
2022-07-29T12:22:50.281Z,100208.47
2022-07-29T12:25:53.116Z,100206.56
2022-07-29T12:28:56.820Z,100204.66
2022-07-29T12:31:59.729Z,100200.03
2022-07-29T12:35:06.562Z,100191.28
2022-07-29T12:38:10.552Z,100188.25
2022-07-29T12:41:13.932Z,100186.75
2022-07-29T12:44:16.399Z,100174.84
2022-07-29T12:47:19.646Z,100171.41
2022-07-29T12:50:26.284Z,100178.56
2022-07-29T12:53:29.394Z,100172.19
2022-07-29T12:56:47.069Z,100166.09
2022-07-29T13:00:11.141Z,100168.44
2022-07-29T13:03:13.744Z,100162.34
2022-07-29T13:06:35.390Z,100161.44
2022-07-29T13:09:46.851Z,100154.84
2022-07-29T13:13:02.129Z,100150.00
2022-07-29T13:16:08.678Z,100152.84
2022-07-29T13:19:12.719Z,100144.31
2022-07-29T13:22:16.335Z,100139.78
2022-07-29T13:25:33.146Z,100129.72
2022-07-29T13:28:35.684Z,100135.31
2022-07-29T13:31:38.470Z,100136.84
2022-07-29T13:34:41.736Z,100130.50
2022-07-29T13:37:44.376Z,100129.09
2022-07-29T13:40:46.779Z,100130.31
2022-07-29T13:43:50.082Z,100123.44
2022-07-29T13:46:52.635Z,100121.50
2022-07-29T13:49:56.135Z,100108.88
2022-07-29T13:53:01.329Z,100117.22
2022-07-29T13:56:06.113Z,100106.38
2022-07-29T13:59:08.748Z,100113.06
2022-07-29T14:02:11.864Z,100102.28
2022-07-29T14:05:18.635Z,100100.44
2022-07-29T14:08:21.048Z,100102.22
2022-07-29T14:11:23.819Z,100104.94
2022-07-29T14:14:26.201Z,100093.94
2022-07-29T14:17:29.687Z,100089.13
2022-07-29T14:20:32.655Z,100088.34
2022-07-29T14:23:36.151Z,100086.12
2022-07-29T14:26:38.819Z,100083.41
2022-07-29T14:29:41.550Z,100075.94
2022-07-29T14:32:43.947Z,100075.03
2022-07-29T14:35:46.588Z,100075.34
2022-07-29T14:38:48.983Z,100071.50
2022-07-29T14:41:52.119Z,100063.50
2022-07-29T14:44:54.908Z,100067.00
2022-07-29T14:47:57.646Z,100064.75
2022-07-29T14:51:04.555Z,100060.47
2022-07-29T14:54:07.626Z,100062.78
2022-07-29T14:57:09.902Z,100060.22
2022-07-29T15:00:13.576Z,100049.41
2022-07-29T15:03:24.224Z,100040.75
2022-07-29T15:06:27.459Z,100026.00
2022-07-29T15:09:29.828Z,100029.25
2022-07-29T15:12:32.798Z,100026.06
2022-07-29T15:15:35.145Z,100031.78
2022-07-29T15:18:39.271Z,100034.38
2022-07-29T15:21:48.872Z,100035.41
2022-07-29T15:24:51.725Z,100028.91
2022-07-29T15:27:56.677Z,100024.59
2022-07-29T15:31:03.288Z,100019.81
2022-07-29T15:34:06.529Z,100020.25
2022-07-29T15:37:09.248Z,100021.56
2022-07-29T15:40:11.802Z,100020.09
2022-07-29T15:43:14.448Z,100013.22
2022-07-29T15:46:36.442Z,100015.78
2022-07-29T15:49:48.336Z,100013.94
2022-07-29T15:52:51.869Z,100013.31
2022-07-29T15:55:54.397Z,100004.59
2022-07-29T15:58:56.831Z,100003.56
2022-07-29T16:02:00.593Z,99999.03
2022-07-29T16:05:03.191Z,99993.03
2022-07-29T16:08:05.683Z,99994.44
2022-07-29T16:11:08.284Z,99991.97
2022-07-29T16:14:11.723Z,99993.84
2022-07-29T16:17:15.213Z,99998.41
2022-07-29T16:20:17.695Z,100002.56
2022-07-29T16:23:20.334Z,99998.81
2022-07-29T16:26:22.691Z,99999.06
2022-07-29T16:29:25.556Z,99999.66
2022-07-29T16:32:27.800Z,99988.06
2022-07-29T16:35:39.744Z,99990.53
2022-07-29T16:38:47.305Z,99988.25
2022-07-29T16:41:50.164Z,99995.66
2022-07-29T16:44:52.495Z,99988.41
2022-07-29T16:48:00.238Z,99992.13
2022-07-29T16:51:03.368Z,99988.63
2022-07-29T16:54:06.011Z,99989.25
2022-07-29T16:57:08.408Z,99980.31
2022-07-29T17:00:11.596Z,99986.63
2022-07-29T17:03:13.897Z,99987.91
2022-07-29T17:06:16.445Z,99980.97
2022-07-29T17:09:18.794Z,99980.28
2022-07-29T17:12:21.473Z,99989.72
2022-07-29T17:15:23.830Z,99992.72
2022-07-29T17:18:26.780Z,99987.00
2022-07-29T17:21:29.211Z,99995.03
2022-07-29T17:24:31.769Z,100000.03
2022-07-29T17:27:34.649Z,99995.66
2022-07-29T17:30:37.267Z,100000.84
2022-07-29T17:33:43.568Z,100004.19
2022-07-29T17:36:46.259Z,99997.66
2022-07-29T17:39:48.874Z,99998.00
2022-07-29T17:42:51.451Z,99991.31
2022-07-29T17:45:56.866Z,99989.47
2022-07-29T17:49:02.261Z,99991.94
2022-07-29T17:52:04.837Z,99986.72
2022-07-29T17:55:07.821Z,99994.37
2022-07-29T17:58:10.433Z,99993.75
2022-07-29T18:01:13.585Z,99991.19
2022-07-29T18:04:20.158Z,99992.72
2022-07-29T18:07:22.528Z,100002.16
2022-07-29T18:10:25.493Z,100002.97
2022-07-29T18:13:27.919Z,100009.78
2022-07-29T18:16:30.610Z,100007.91
2022-07-29T18:19:33.054Z,100009.16
2022-07-29T18:22:35.648Z,100017.31
2022-07-29T18:25:39.025Z,100009.19
2022-07-29T18:28:41.669Z,100023.78
2022-07-29T18:31:44.024Z,100021.31
2022-07-29T18:34:46.889Z,100031.44
2022-07-29T18:38:00.871Z,100025.44
2022-07-29T18:41:05.531Z,100038.84
2022-07-29T18:44:09.639Z,100041.88
2022-07-29T18:47:12.794Z,100055.53
2022-07-29T18:50:16.604Z,100065.06
2022-07-29T18:53:19.438Z,100065.69
2022-07-29T18:56:21.734Z,100061.66
2022-07-29T18:59:24.396Z,100072.06
2022-07-29T19:02:27.922Z,100076.06
2022-07-29T19:05:30.690Z,100081.78
2022-07-29T19:08:33.377Z,100091.66
2022-07-29T19:11:36.837Z,100087.66
2022-07-29T19:14:39.461Z,100099.59
2022-07-29T19:17:41.996Z,100095.59
2022-07-29T19:20:44.520Z,100096.97
2022-07-29T19:24:06.269Z,100103.84
2022-07-29T19:27:09.761Z,100096.66
2022-07-29T19:30:12.720Z,100101.87
2022-07-29T19:33:17.537Z,100100.72
2022-07-29T19:36:20.622Z,100100.25
2022-07-29T19:39:35.030Z,100101.78
2022-07-29T19:42:38.273Z,100099.09
2022-07-29T19:45:40.899Z,100102.78
2022-07-29T19:48:43.733Z,100105.28
2022-07-29T19:51:46.012Z,100101.94
2022-07-29T19:54:48.635Z,100099.78
2022-07-29T19:57:52.652Z,100097.41
2022-07-29T20:00:55.416Z,100089.53
2022-07-29T20:03:58.209Z,100094.03
2022-07-29T20:07:01.876Z,100086.34
2022-07-29T20:10:08.445Z,100092.31
2022-07-29T20:13:10.919Z,100093.78
2022-07-29T20:16:13.575Z,100095.72
2022-07-29T20:19:16.581Z,100099.91
2022-07-29T20:22:21.191Z,100097.34
2022-07-29T20:25:23.788Z,100093.50
2022-07-29T20:28:26.438Z,100110.16
2022-07-29T20:31:30.521Z,100113.59
2022-07-29T20:34:33.304Z,100118.00
2022-07-29T20:37:52.175Z,100119.63
2022-07-29T20:40:58.867Z,100115.31
2022-07-29T20:44:01.538Z,100115.78
2022-07-29T20:47:04.196Z,100121.72
2022-07-29T20:50:06.743Z,100119.22
2022-07-29T20:53:09.738Z,100119.44
2022-07-29T20:56:12.583Z,100123.59
2022-07-29T20:59:15.239Z,100130.84
2022-07-29T21:02:17.586Z,100142.13
2022-07-29T21:05:20.173Z,100135.03
2022-07-29T21:08:22.546Z,100147.66
2022-07-29T21:11:44.670Z,100143.59
2022-07-29T21:14:51.730Z,100142.44
2022-07-29T21:18:00.674Z,100152.03
2022-07-29T21:21:04.150Z,100146.91
2022-07-29T21:24:07.496Z,100143.34
2022-07-29T21:27:33.151Z,100154.63
2022-07-29T21:30:36.555Z,100157.62
2022-07-29T21:33:40.427Z,100148.16
2022-07-29T21:36:48.339Z,100153.81
2022-07-29T21:39:50.992Z,100155.25
2022-07-29T21:42:53.610Z,100162.44
2022-07-29T21:45:56.700Z,100173.25
2022-07-29T21:48:59.451Z,100170.47
2022-07-29T21:52:01.824Z,100169.94
2022-07-29T21:55:04.588Z,100177.53
2022-07-29T21:58:07.563Z,100179.78
2022-07-29T22:01:10.185Z,100184.53
2022-07-29T22:04:12.932Z,100198.12
2022-07-29T22:07:15.263Z,100197.13
2022-07-29T22:10:17.816Z,100196.59
2022-07-29T22:13:20.076Z,100197.00
2022-07-29T22:16:22.707Z,100199.66
2022-07-29T22:19:27.357Z,100202.16
2022-07-29T22:22:30.308Z,100195.22
2022-07-29T22:25:32.676Z,100201.66
2022-07-29T22:28:35.266Z,100206.69
2022-07-29T22:31:37.550Z,100199.41
2022-07-29T22:34:40.107Z,100208.06
2022-07-29T22:37:42.550Z,100201.78
2022-07-29T22:40:45.310Z,100200.38
2022-07-29T22:43:47.631Z,100206.37
2022-07-29T22:46:50.182Z,100200.47
2022-07-29T22:49:52.583Z,100194.88
2022-07-29T22:52:55.184Z,100198.50
2022-07-29T22:55:57.577Z,100193.16
2022-07-29T22:59:00.165Z,100187.16
2022-07-29T23:02:02.459Z,100189.53
2022-07-29T23:05:05.141Z,100178.34
2022-07-29T23:08:09.276Z,100180.56
2022-07-29T23:11:11.910Z,100183.25
2022-07-29T23:14:14.224Z,100181.97
2022-07-29T23:17:17.114Z,100179.81
2022-07-29T23:20:21.715Z,100177.72
2022-07-29T23:23:24.413Z,100167.97
2022-07-29T23:26:26.785Z,100166.94
2022-07-29T23:29:30.993Z,100173.94
2022-07-29T23:32:36.159Z,100168.19
2022-07-29T23:35:38.704Z,100160.75
2022-07-29T23:38:41.199Z,100155.44
2022-07-29T23:41:43.761Z,100148.16
2022-07-29T23:44:46.087Z,100147.00
2022-07-29T23:47:48.663Z,100150.50
2022-07-29T23:50:50.947Z,100141.25
2022-07-29T23:53:54.413Z,100141.94
2022-07-29T23:56:57.922Z,100130.88
